createdAt,value
2023-03-03T08:02:43.687Z,32.89
2023-03-03T08:03:43.825Z,32.70
2023-03-03T08:04:44.284Z,32.79
2023-03-03T08:05:44.346Z,32.70
2023-03-03T08:06:44.638Z,32.58
2023-03-03T08:07:44.778Z,32.50
2023-03-03T08:08:45.028Z,32.50
2023-03-03T08:09:45.283Z,32.48
2023-03-03T08:10:45.586Z,32.50
2023-03-03T08:11:45.683Z,32.50
2023-03-03T08:12:45.932Z,32.50
2023-03-03T08:13:46.161Z,32.50
2023-03-03T08:14:46.424Z,32.59
2023-03-03T08:15:46.696Z,32.50
2023-03-03T08:16:46.810Z,32.59
2023-03-03T08:17:47.040Z,32.50
2023-03-03T08:18:47.294Z,32.50
2023-03-03T08:19:47.517Z,32.48
2023-03-03T08:20:47.770Z,32.48
2023-03-03T08:21:47.987Z,32.48
2023-03-03T08:22:48.234Z,32.48
2023-03-03T08:23:48.456Z,32.48
2023-03-03T08:24:48.710Z,32.38
2023-03-03T08:25:48.817Z,32.48
2023-03-03T08:26:49.054Z,32.38
2023-03-03T08:27:49.276Z,32.38
2023-03-03T08:28:49.560Z,32.38
2023-03-03T08:29:49.664Z,32.38
2023-03-03T08:30:49.959Z,32.38
2023-03-03T08:31:50.066Z,32.38
2023-03-03T08:32:50.319Z,32.38
2023-03-03T08:33:50.405Z,32.28
2023-03-03T08:34:50.653Z,32.28
2023-03-03T08:35:50.763Z,32.18
2023-03-03T08:36:51.010Z,32.18
2023-03-03T08:37:51.144Z,32.18
2023-03-03T08:38:51.273Z,32.28
2023-03-03T08:39:51.512Z,32.28
2023-03-03T08:40:51.744Z,32.28
2023-03-03T08:41:51.847Z,32.28
2023-03-03T08:42:52.097Z,32.28
2023-03-03T08:43:52.215Z,32.28
2023-03-03T08:44:52.459Z,32.28
2023-03-03T08:45:52.675Z,32.28
2023-03-03T08:46:52.940Z,32.28
2023-03-03T08:47:53.211Z,32.18
2023-03-03T08:48:53.328Z,32.18
2023-03-03T08:49:53.519Z,32.08
2023-03-03T08:50:53.769Z,32.08
2023-03-03T08:51:53.870Z,32.08
2023-03-03T08:52:54.118Z,32.08
2023-03-03T08:53:54.221Z,32.06
2023-03-03T08:54:54.490Z,32.17
2023-03-03T08:55:54.631Z,32.06
2023-03-03T08:56:54.832Z,32.06
2023-03-03T08:57:55.079Z,32.06
2023-03-03T08:59:03.185Z,32.06
2023-03-03T08:59:56.410Z,32.06
2023-03-03T09:00:55.593Z,32.06
2023-03-03T09:01:55.728Z,32.06
2023-03-03T09:02:55.956Z,32.06
2023-03-03T09:03:56.077Z,31.96
2023-03-03T09:04:56.308Z,31.96
2023-03-03T09:05:56.414Z,31.96
2023-03-03T09:06:56.656Z,31.96
2023-03-03T09:07:56.773Z,31.87
2023-03-03T09:08:57.058Z,31.96
2023-03-03T09:09:57.759Z,31.87
2023-03-03T09:10:57.310Z,31.87
2023-03-03T09:11:57.397Z,31.87
2023-03-03T09:12:57.637Z,31.87
2023-03-03T09:13:57.728Z,31.87
2023-03-03T09:14:57.965Z,31.87
2023-03-03T09:15:58.100Z,31.76
2023-03-03T09:16:58.209Z,31.87
2023-03-03T09:17:58.318Z,31.87
2023-03-03T09:18:58.576Z,31.87
2023-03-03T09:19:58.677Z,31.76
2023-03-03T09:20:58.946Z,31.76
2023-03-03T09:21:59.057Z,31.87
2023-03-03T09:22:59.196Z,31.96
2023-03-03T09:23:59.339Z,31.96
2023-03-03T09:24:59.489Z,31.96
2023-03-03T09:25:59.606Z,31.96
2023-03-03T09:26:59.876Z,31.96
2023-03-03T09:27:59.998Z,31.85
2023-03-03T09:29:00.265Z,31.95
2023-03-03T09:30:00.369Z,31.95
2023-03-03T09:31:00.512Z,31.95
2023-03-03T09:32:00.762Z,31.95
2023-03-03T09:33:00.781Z,31.85
2023-03-03T09:34:00.903Z,31.95
2023-03-03T09:35:01.078Z,31.95
2023-03-03T09:36:01.259Z,31.95
2023-03-03T09:37:01.385Z,31.95
2023-03-03T09:38:01.528Z,31.95
2023-03-03T09:39:01.662Z,31.95
2023-03-03T09:40:01.772Z,32.05
2023-03-03T09:41:02.022Z,32.05
2023-03-03T09:42:02.150Z,32.05
2023-03-03T09:43:02.274Z,32.05
2023-03-03T09:44:02.396Z,32.15
2023-03-03T09:45:02.645Z,32.15
2023-03-03T09:46:02.754Z,32.25
2023-03-03T09:47:03.064Z,32.15
2023-03-03T09:48:03.146Z,32.15
2023-03-03T09:49:03.456Z,32.25
2023-03-03T09:50:03.565Z,32.05
2023-03-03T09:51:03.706Z,32.05
2023-03-03T09:52:03.825Z,32.05
2023-03-03T09:53:04.085Z,32.05
2023-03-03T09:54:04.178Z,32.05
2023-03-03T09:55:04.426Z,32.15
2023-03-03T09:56:04.556Z,32.15
2023-03-03T09:57:04.797Z,32.05
2023-03-03T09:58:10.841Z,32.05
2023-03-03T09:59:06.138Z,32.05
2023-03-03T10:00:05.318Z,31.95
2023-03-03T10:01:05.581Z,32.05
2023-03-03T10:02:06.598Z,32.05
2023-03-03T10:03:05.972Z,31.95
2023-03-03T10:04:06.147Z,32.05
2023-03-03T10:05:06.249Z,31.95
2023-03-03T10:06:06.381Z,31.95
2023-03-03T10:07:06.620Z,31.95
2023-03-03T10:08:06.743Z,31.95
2023-03-03T10:09:07.001Z,31.95
2023-03-03T10:10:07.101Z,31.95
2023-03-03T10:11:07.352Z,32.05
2023-03-03T10:12:07.570Z,32.05
2023-03-03T10:13:07.692Z,31.95
2023-03-03T10:14:07.922Z,31.95
2023-03-03T10:15:07.985Z,31.95
2023-03-03T10:16:08.092Z,31.95
2023-03-03T10:17:08.226Z,31.85
2023-03-03T10:18:08.345Z,31.85
2023-03-03T10:19:08.584Z,31.85
2023-03-03T10:20:08.706Z,31.95
2023-03-03T10:21:08.945Z,31.85
2023-03-03T10:22:09.045Z,31.85
2023-03-03T10:23:09.353Z,31.75
2023-03-03T10:24:09.539Z,31.65
2023-03-03T10:25:09.680Z,31.55
2023-03-03T10:26:09.778Z,31.55
2023-03-03T10:27:13.786Z,31.55
2023-03-03T10:28:10.026Z,31.65
2023-03-03T10:29:10.165Z,31.75
2023-03-03T10:30:10.307Z,31.63
2023-03-03T10:31:14.837Z,31.75
2023-03-03T10:32:12.532Z,31.85
2023-03-03T10:33:11.129Z,31.95
2023-03-03T10:34:11.019Z,32.03
2023-03-03T10:35:11.266Z,32.53
2023-03-03T10:36:11.421Z,32.45
2023-03-03T10:37:11.552Z,33.84
2023-03-03T10:38:11.694Z,33.35
2023-03-03T10:39:11.959Z,32.85
2023-03-03T10:40:12.070Z,32.35
2023-03-03T10:41:12.327Z,32.55
2023-03-03T10:42:12.459Z,32.45
2023-03-03T10:43:22.481Z,32.46
2023-03-03T10:44:13.713Z,32.56
2023-03-03T10:45:12.913Z,32.68
2023-03-03T10:46:13.129Z,32.88
2023-03-03T10:47:13.281Z,33.39
2023-03-03T10:48:13.417Z,33.39
2023-03-03T10:49:13.577Z,34.01
2023-03-03T10:50:13.713Z,33.61
2023-03-03T10:51:13.855Z,33.62
2023-03-03T10:52:13.995Z,33.83
2023-03-03T10:53:14.153Z,33.94
2023-03-03T10:54:14.298Z,33.94
2023-03-03T10:55:14.464Z,33.94
2023-03-03T10:56:14.601Z,34.26
2023-03-03T10:57:14.756Z,34.46
2023-03-03T10:58:14.906Z,34.36
2023-03-03T10:59:15.134Z,34.38
2023-03-03T11:00:15.238Z,34.58
2023-03-03T11:01:15.440Z,34.67
2023-03-03T11:02:15.573Z,34.78
2023-03-03T11:03:15.731Z,34.58
2023-03-03T11:04:15.922Z,34.78
2023-03-03T11:05:16.090Z,34.88
2023-03-03T11:06:16.230Z,34.89
2023-03-03T11:07:16.389Z,35.30
2023-03-03T11:08:16.548Z,35.28
2023-03-03T11:09:16.789Z,34.78
2023-03-03T11:10:16.879Z,34.58
2023-03-03T11:11:17.046Z,34.67
2023-03-03T11:12:17.172Z,34.48
2023-03-03T11:13:17.351Z,34.88
2023-03-03T11:14:17.511Z,34.98
2023-03-03T11:15:17.673Z,35.48
2023-03-03T11:16:17.860Z,35.38
2023-03-03T11:17:18.007Z,35.38
2023-03-03T11:18:18.154Z,36.08
2023-03-03T11:19:18.319Z,35.76
2023-03-03T11:20:18.455Z,35.76
2023-03-03T11:21:18.655Z,36.07
2023-03-03T11:22:18.810Z,35.94
2023-03-03T11:23:18.975Z,35.94
2023-03-03T11:24:19.136Z,36.05
2023-03-03T11:25:19.276Z,35.85
2023-03-03T11:26:19.450Z,35.93
2023-03-03T11:27:19.592Z,35.73
2023-03-03T11:28:19.756Z,35.33
